AirNav   Everest Fuels
 
 439 users online  

IN5 Adams Lake Seaplane Base
Woolcottville, Indiana, USA


FAA INFORMATION EFFECTIVE 22 APRIL 2021

Location

FAA Identifier: IN5
Lat/Long: 41-33-09.6800N 085-19-52.0300W
41-33.161333N 085-19.867167W
41.5526889,-85.3311194
(estimated)
Elevation: 955 ft. / 291 m (estimated)
From city: 2 miles NE of WOOLCOTTVILLE, IN
Time zone: UTC -4 (UTC -5 during Standard Time)
Zip code: 46795

Seaplane Base Operations

Seaplane Base use: Open to the public
Activation date: 08/2020
Control tower: no
ARTCC: CHICAGO CENTER
FSS: TERRE HAUTE FLIGHT SERVICE STATION
NOTAMs facility: HUF (NOTAM-D service available)
Attendance: 
Segmented circle: no

Seaplane Base Communications

CTAF: 122.9
WX AWOS-3P at C62 (6 nm SE): 119.925 (260-347-2967)
WX AWOS-3 at ANQ (12 nm NE): 118.175 (260-668-5630)
WX AWOS-3 at IRS (16 nm N): 121.325 (269-659-8715)
WX AWOS-3 at GWB (19 nm SE): 124.15 (260-925-8225)

Nearby radio navigation aids

VOR radial/distance  VOR name  Freq  Var
OLKr025/(19.8)WEBSTER LAKE VOR110.4003W
GSHr087/31.3GOSHEN VORTAC113.7000E
FWAr355/35.0FORT WAYNE VORTAC117.8006W
LFDr225/39.7LITCHFIELD VOR/DME111.2005W

 
NDB name  Hdg/Dist  Freq  Var  ID
STURGIS168/16.338204WIRS .. .-. ...

Seaplane Base Services

Runway Information

Runway 6W/24W

Dimensions: 2675 x 100 ft. / 815 x 30 m
Surface: water
RUNWAY 6W  RUNWAY 24W
Latitude: 41-33.078000N41-33.268167N
Longitude: 085-20.107333W085-19.577500W
Elevation: 955.0 ft.955.0 ft.
Traffic pattern: leftleft

Seaplane Base Ownership and Management from official FAA records

Ownership: Publicly-owned
Owner: INDIANA DEPT OF NATURAL RESOURCES
402 W. WASHINGTON ST RM W-255D
INDIANAPOLIS, IN 46204
Phone 317 232 0935
Manager: KENTON TURNER
402 W WASHINGTON ST, W-255D
INDIANAPOLIS, IN 46204
Phone 317 232 0935

Instrument Procedures

There are no published instrument procedures at IN5.

Some nearby airports with instrument procedures:

C62 - Kendallville Municipal Airport (6 nm SE)
KANQ - Tri-State Steuben County Airport (12 nm NE)
KIRS - Kirsch Municipal Airport (16 nm N)
KGWB - De Kalb County Airport (19 nm SE)
KGSH - Goshen Municipal Airport (21 nm W)
 
Loc | Ops | Rwys | IFR | FBO | Links
Com | Nav | Svcs | Stats | Notes
Aerial photo
No photo
 
Airport distance calculator
Flying to Adams Lake Seaplane Base? Find the distance to fly.

From to IN5

Sunrise and sunset
Times for 15-May-2021
 Local
(UTC-4)
 Zulu
(UTC)
Morning civil twilight05:5109:51
Sunrise06:2310:23
Sunset20:5200:52
Evening civil twilight21:2401:24

Current date and time
Zulu (UTC)  15-May-2021 09:07:12
Local (UTC-4)  15-May-2021 05:07:12
 
METAR
KC62 
6nm SE 
150835Z AUTO 00000KT 10SM CLR 07/04 A3025 RMK AO2 T00760045
KANQ 
12nm NE 
150855Z AUTO 00000KT 10SM FEW055 FEW090 07/05 A3025 RMK AO2
KIRS 
16nm N 
150855Z AUTO 00000KT 10SM CLR 08/02 A3024 RMK AO2 T00770021
KGWB 
19nm SE 
150855Z AUTO 00000KT 10SM CLR 06/04 A3026 RMK AO2
TAF
KFWA 
36nm S 
150520Z 1506/1606 21003KT P6SM FEW250 FM151600 22008KT P6SM OVC080 FM160300 18003KT P6SM OVC040
KAZO 
42nm N 
150521Z 1506/1606 00000KT P6SM SCT090 BKN250 FM151600 22011KT P6SM BKN120 FM152200 26004KT P6SM -SHRA OVC050 FM160400 14003KT P6SM OVC040
NOTAMs
Click for the latest NOTAMs
NOTAMs are issued by the DoD/FAA and will open in a separate window not controlled by AirNav.

 

 
 

Would you like to see your business listed on this page?

 If your business provides an interesting product or service to pilots, flight crews, aircraft, or users of the Adams Lake Seaplane Base, you should consider listing it here.  To start the listing process, click on the button below
 
Add a business
 

Other Pages about Adams Lake Seaplane Base

Update a link
 
Copyright © AirNav, LLC. All rights reserved. Privacy Policy  Contact